createdAt,value
2023-03-16T01:02:43.055Z,181.98
2023-03-16T01:03:43.070Z,182.19
2023-03-16T01:04:43.009Z,181.85
2023-03-16T01:05:42.983Z,182.05
2023-03-16T01:06:42.936Z,182.15
2023-03-16T01:07:42.883Z,181.89
2023-03-16T01:08:42.858Z,182.01
2023-03-16T01:09:42.855Z,182.34
2023-03-16T01:10:42.781Z,182.20
2023-03-16T01:11:42.756Z,182.84
2023-03-16T01:12:42.731Z,181.87
2023-03-16T01:13:42.690Z,181.71
2023-03-16T01:14:42.647Z,182.57
2023-03-16T01:15:42.601Z,181.95
2023-03-16T01:16:42.641Z,181.62
2023-03-16T01:17:42.556Z,182.06
2023-03-16T01:18:42.513Z,182.61
2023-03-16T01:19:42.480Z,181.66
2023-03-16T01:20:42.439Z,182.88
2023-03-16T01:21:42.432Z,182.12
2023-03-16T01:22:42.380Z,181.94
2023-03-16T01:23:42.341Z,181.60
2023-03-16T01:24:42.325Z,182.75
2023-03-16T01:25:42.275Z,182.81
2023-03-16T01:26:42.243Z,182.66
2023-03-16T01:27:42.222Z,182.14
2023-03-16T01:28:42.175Z,182.13
2023-03-16T01:29:42.132Z,183.18
2023-03-16T01:30:42.149Z,182.32
2023-03-16T01:31:42.075Z,181.52
2023-03-16T01:32:42.095Z,182.40
2023-03-16T01:33:42.001Z,181.94
2023-03-16T01:34:41.979Z,183.17
2023-03-16T01:35:41.982Z,181.39
2023-03-16T01:36:41.921Z,181.63
2023-03-16T01:37:41.885Z,182.15
2023-03-16T01:38:41.854Z,181.73
2023-03-16T01:39:41.808Z,181.29
2023-03-16T01:40:41.777Z,180.66
2023-03-16T01:41:41.758Z,181.09
2023-03-16T01:42:41.723Z,181.15
2023-03-16T01:58:41.199Z,183.19
2023-03-16T02:53:39.416Z,181.79
2023-03-16T02:54:39.260Z,181.59
2023-03-16T02:55:39.241Z,181.63
2023-03-16T02:56:39.214Z,181.48
2023-03-16T02:57:39.215Z,181.62
2023-03-16T02:58:39.166Z,181.19
2023-03-16T02:59:39.131Z,181.60
2023-03-16T03:00:39.131Z,181.83
2023-03-16T03:01:39.082Z,181.80
2023-03-16T03:02:39.063Z,183.74
2023-03-16T03:03:39.073Z,184.40
2023-03-16T03:04:39.035Z,185.06
2023-03-16T03:06:38.956Z,187.09
2023-03-16T03:07:38.932Z,186.99
2023-03-16T03:08:38.909Z,188.39
2023-03-16T03:09:38.873Z,189.68
2023-03-16T03:10:38.840Z,189.77
2023-03-16T03:11:38.810Z,189.76
2023-03-16T03:12:38.776Z,191.74
2023-03-16T03:13:38.745Z,192.20
2023-03-16T03:14:38.720Z,191.87
2023-03-16T03:15:38.686Z,193.09
2023-03-16T03:16:38.749Z,193.92
2023-03-16T03:17:38.615Z,193.08
2023-03-16T03:18:38.580Z,193.93
2023-03-16T03:19:38.559Z,194.81
2023-03-16T03:20:38.533Z,195.60
2023-03-16T03:21:38.492Z,196.06
2023-03-16T03:22:38.462Z,196.97
2023-03-16T03:23:38.463Z,196.80
2023-03-16T03:24:38.394Z,197.63
2023-03-16T03:25:38.388Z,198.04
2023-03-16T03:26:38.333Z,198.16
2023-03-16T03:27:38.366Z,198.59
2023-03-16T03:28:38.294Z,198.40
2023-03-16T03:29:38.244Z,198.83
2023-03-16T03:30:38.221Z,199.37
2023-03-16T03:31:38.261Z,201.42
2023-03-16T03:32:38.188Z,201.84
2023-03-16T03:33:38.126Z,201.27
2023-03-16T03:34:38.079Z,202.63
2023-03-16T03:35:38.079Z,202.06
2023-03-16T03:36:38.029Z,203.10
2023-03-16T03:37:37.994Z,201.98
2023-03-16T03:38:37.963Z,202.95
2023-03-16T03:39:37.929Z,203.72
2023-03-16T03:40:37.896Z,204.67
2023-03-16T03:41:37.867Z,205.07
2023-03-16T03:42:37.832Z,204.00
2023-03-16T03:43:37.816Z,204.90
2023-03-16T03:44:37.772Z,204.74
2023-03-16T03:45:37.799Z,204.48
2023-03-16T03:46:37.860Z,205.77
2023-03-16T03:48:37.683Z,205.80
2023-03-16T03:49:37.628Z,205.36
2023-03-16T03:50:37.592Z,205.87
2023-03-16T03:51:37.562Z,206.77
2023-03-16T03:52:37.530Z,206.05
2023-03-16T03:53:37.498Z,206.78
2023-03-16T03:54:37.459Z,206.54
2023-03-16T03:55:37.440Z,206.69
2023-03-16T03:56:37.397Z,206.10
2023-03-16T03:57:37.373Z,206.62
2023-03-16T03:58:37.333Z,205.20
2023-03-16T03:59:37.299Z,204.82
2023-03-16T04:00:37.268Z,204.06
2023-03-16T04:01:37.236Z,203.74
2023-03-16T04:02:37.320Z,203.12
2023-03-16T04:03:37.151Z,203.23
2023-03-16T04:04:37.140Z,203.13
2023-03-16T04:05:37.081Z,202.27
2023-03-16T04:06:37.034Z,203.37
2023-03-16T04:07:37.018Z,202.11
2023-03-16T04:08:36.954Z,201.77
2023-03-16T04:09:36.916Z,200.48
2023-03-16T04:10:36.886Z,201.83
2023-03-16T04:11:36.860Z,200.47
2023-03-16T04:12:36.821Z,202.27
2023-03-16T04:13:36.774Z,199.79
2023-03-16T04:14:36.757Z,200.47
2023-03-16T04:15:36.709Z,199.32
2023-03-16T04:16:36.748Z,199.07
2023-03-16T04:17:36.649Z,198.82
2023-03-16T04:18:38.327Z,197.75
2023-03-16T04:19:36.569Z,198.01
2023-03-16T04:20:36.560Z,196.64
2023-03-16T04:21:36.534Z,196.26
2023-03-16T04:22:36.482Z,196.31
2023-03-16T04:23:36.466Z,195.57
2023-03-16T04:24:36.437Z,195.89
2023-03-16T04:25:36.404Z,194.69
2023-03-16T04:26:36.349Z,195.43
2023-03-16T04:27:36.337Z,195.45
2023-03-16T04:28:36.286Z,194.39
2023-03-16T04:29:36.264Z,194.89
2023-03-16T04:30:36.248Z,193.51
2023-03-16T04:31:36.169Z,194.98
2023-03-16T04:32:36.182Z,194.12
2023-03-16T04:33:36.099Z,194.13
2023-03-16T04:34:36.077Z,194.13
2023-03-16T04:35:36.059Z,192.71
2023-03-16T04:36:35.991Z,192.89
2023-03-16T04:37:35.950Z,193.82
2023-03-16T04:38:35.914Z,192.28
2023-03-16T04:39:35.876Z,191.92
2023-03-16T04:40:35.840Z,193.06
2023-03-16T04:41:35.795Z,191.98
2023-03-16T04:42:35.787Z,192.61
2023-03-16T04:43:35.743Z,193.08
2023-03-16T04:44:35.740Z,192.65
2023-03-16T04:45:35.690Z,191.44
2023-03-16T04:46:35.652Z,192.06
2023-03-16T04:47:35.613Z,192.53
2023-03-16T04:48:35.608Z,193.64
2023-03-16T04:49:35.553Z,193.26
2023-03-16T04:50:35.538Z,193.47
2023-03-16T04:51:35.483Z,193.17
2023-03-16T04:52:35.464Z,192.15
2023-03-16T04:53:35.417Z,192.34
2023-03-16T04:54:35.398Z,193.13
2023-03-16T04:55:35.370Z,192.79
2023-03-16T04:56:35.384Z,193.90
2023-03-16T04:57:35.318Z,192.67
2023-03-16T04:58:35.337Z,193.06
2023-03-16T04:59:35.262Z,191.72
2023-03-16T05:00:35.215Z,190.74
2023-03-16T05:01:35.173Z,191.61
2023-03-16T05:02:35.083Z,191.25
2023-03-16T05:03:35.135Z,191.09
2023-03-16T05:04:35.071Z,191.49
2023-03-16T05:05:35.077Z,191.94
2023-03-16T05:06:34.946Z,190.74
2023-03-16T05:07:34.906Z,190.93
2023-03-16T05:08:34.872Z,191.12
2023-03-16T05:09:34.843Z,189.19
2023-03-16T05:10:34.837Z,190.94
2023-03-16T05:11:34.771Z,190.89
2023-03-16T05:12:34.752Z,189.89
2023-03-16T05:13:34.738Z,190.73
2023-03-16T05:14:34.689Z,190.58
2023-03-16T05:15:34.668Z,191.28
2023-03-16T05:16:34.624Z,191.14
2023-03-16T05:17:34.601Z,191.89
2023-03-16T05:18:34.560Z,193.46
2023-03-16T05:19:34.512Z,192.06
2023-03-16T05:20:34.494Z,194.15
2023-03-16T05:21:34.442Z,195.95
2023-03-16T05:22:34.414Z,195.29
2023-03-16T05:23:34.387Z,194.61
2023-03-16T05:24:34.338Z,196.15
2023-03-16T05:25:34.307Z,197.03
2023-03-16T05:26:34.274Z,198.02
2023-03-16T05:27:34.251Z,197.56
2023-03-16T05:28:34.207Z,199.16
2023-03-16T05:29:34.179Z,200.35
2023-03-16T05:30:34.170Z,199.03
2023-03-16T05:31:34.173Z,199.32
2023-03-16T05:32:34.125Z,200.69
2023-03-16T05:33:34.011Z,202.65
2023-03-16T05:34:33.993Z,202.31
2023-03-16T05:35:34.031Z,202.38
2023-03-16T05:36:33.915Z,202.30
2023-03-16T05:37:33.879Z,203.32
2023-03-16T05:38:33.851Z,203.35
2023-03-16T05:39:33.849Z,203.36
2023-03-16T05:40:33.787Z,205.11
2023-03-16T05:41:33.749Z,202.79
2023-03-16T05:42:33.686Z,203.94
2023-03-16T05:43:33.697Z,204.16
2023-03-16T05:44:33.626Z,204.67
2023-03-16T05:45:33.588Z,205.08
2023-03-16T05:46:33.642Z,205.87
2023-03-16T05:47:33.493Z,204.05
2023-03-16T05:48:33.461Z,205.35
2023-03-16T05:49:33.411Z,205.64
2023-03-16T05:50:33.375Z,206.62
2023-03-16T05:51:33.330Z,206.15
2023-03-16T05:52:33.294Z,207.35
2023-03-16T05:53:33.257Z,207.90
2023-03-16T05:54:33.225Z,206.92
2023-03-16T05:55:33.196Z,207.93
2023-03-16T05:56:33.160Z,207.01
2023-03-16T05:57:33.099Z,208.81
2023-03-16T05:58:33.065Z,206.01
2023-03-16T05:59:33.034Z,206.92
2023-03-16T06:00:33.002Z,207.11
2023-03-16T06:01:32.952Z,207.29
2023-03-16T06:02:32.932Z,207.46
2023-03-16T06:03:32.866Z,208.90
2023-03-16T06:04:32.885Z,209.35
2023-03-16T06:05:32.803Z,208.23
2023-03-16T06:06:32.767Z,207.59
2023-03-16T06:07:32.737Z,209.19
2023-03-16T06:08:32.767Z,205.99
2023-03-16T06:09:32.678Z,206.78
2023-03-16T06:10:32.660Z,206.48
2023-03-16T06:11:32.616Z,207.17
2023-03-16T06:12:32.576Z,206.36
2023-03-16T06:13:32.527Z,205.79
2023-03-16T06:14:32.509Z,205.55
2023-03-16T06:15:32.445Z,204.83
2023-03-16T06:16:32.496Z,203.80
2023-03-16T06:17:32.377Z,204.16
2023-03-16T06:18:32.329Z,203.52
2023-03-16T06:19:32.289Z,203.67
2023-03-16T06:20:32.244Z,203.93
2023-03-16T06:21:32.235Z,204.02
2023-03-16T06:22:32.190Z,203.18
2023-03-16T06:23:32.127Z,204.17
2023-03-16T06:24:32.099Z,204.01
2023-03-16T06:25:32.055Z,203.29
2023-03-16T06:26:32.068Z,202.52
2023-03-16T06:27:32.024Z,203.11
2023-03-16T06:28:31.962Z,201.44
2023-03-16T06:29:31.888Z,202.30
2023-03-16T06:30:31.861Z,203.29
2023-03-16T06:31:31.926Z,202.93
2023-03-16T06:32:31.886Z,203.72
2023-03-16T06:33:31.748Z,204.12
2023-03-16T06:34:31.712Z,205.87
2023-03-16T06:47:31.200Z,236.20
2023-03-16T06:48:31.273Z,236.96
2023-03-16T06:49:31.217Z,237.52
2023-03-16T06:50:31.121Z,239.26
2023-03-16T06:51:31.079Z,240.63
2023-03-16T06:52:30.981Z,245.05
2023-03-16T06:53:30.992Z,247.88
2023-03-16T06:54:30.920Z,250.00
2023-03-16T06:55:30.873Z,248.16
2023-03-16T06:56:30.839Z,249.77
2023-03-16T06:57:30.783Z,248.09
2023-03-16T06:58:30.761Z,247.84
2023-03-16T06:59:30.707Z,248.77
2023-03-16T07:00:30.823Z,250.75
2023-03-16T07:01:30.747Z,249.18
2023-03-16T07:02:30.598Z,248.91
2023-03-16T07:03:30.556Z,250.34
2023-03-16T07:04:30.542Z,249.44
2023-03-16T07:05:30.435Z,249.15
2023-03-16T07:06:30.420Z,250.27
2023-03-16T07:07:30.335Z,246.89
2023-03-16T07:08:30.304Z,250.32
2023-03-16T07:10:30.582Z,250.45
2023-03-16T07:11:31.009Z,250.58
2023-03-16T07:12:30.106Z,250.68
2023-03-16T07:13:30.053Z,251.29
2023-03-16T07:14:30.051Z,253.46
2023-03-16T07:15:29.970Z,255.60
2023-03-16T07:16:29.980Z,262.12
2023-03-16T07:17:29.889Z,254.38
2023-03-16T07:18:29.826Z,254.60
2023-03-16T07:19:29.812Z,255.32
2023-03-16T07:20:30.219Z,257.96
2023-03-16T07:21:29.716Z,259.96
2023-03-16T07:22:29.700Z,264.40
2023-03-16T07:23:29.617Z,257.01
2023-03-16T07:24:29.675Z,250.41
2023-03-16T07:25:29.530Z,248.89
2023-03-16T07:26:29.494Z,247.68
2023-03-16T07:27:29.428Z,247.74
2023-03-16T07:28:29.386Z,247.77
2023-03-16T07:29:29.327Z,247.34
2023-03-16T07:30:29.779Z,247.74
2023-03-16T07:31:29.226Z,251.30
2023-03-16T07:32:29.223Z,250.01
2023-03-16T07:33:29.101Z,250.06
2023-03-16T07:34:29.052Z,250.00
2023-03-16T07:35:29.017Z,250.24
2023-03-16T07:36:28.925Z,250.00
2023-03-16T07:37:29.575Z,250.07
2023-03-16T07:38:28.762Z,250.00
2023-03-16T07:39:28.675Z,250.00
2023-03-16T07:40:28.826Z,250.00
2023-03-16T07:41:28.981Z,246.89
2023-03-16T07:42:28.435Z,246.19
2023-03-16T07:43:28.336Z,247.84
2023-03-16T07:44:28.230Z,204.59
2023-03-16T07:45:28.371Z,151.67
2023-03-16T07:46:28.147Z,113.10
2023-03-16T07:47:27.999Z,127.59
2023-03-16T07:48:27.970Z,137.46
2023-03-16T07:49:27.833Z,141.61
2023-03-16T07:50:27.941Z,154.73
2023-03-16T07:51:27.687Z,170.68
2023-03-16T07:52:27.588Z,175.13
2023-03-16T07:53:27.517Z,177.00
2023-03-16T07:54:27.421Z,178.08
2023-03-16T07:55:27.358Z,179.50
2023-03-16T07:56:31.541Z,183.36
2023-03-16T07:57:28.207Z,183.49
2023-03-16T07:58:27.148Z,183.57
2023-03-16T07:59:27.114Z,184.44
2023-03-16T08:00:28.040Z,186.27
2023-03-16T08:01:26.912Z,190.58
2023-03-16T08:02:27.036Z,194.29
2023-03-16T08:03:26.834Z,196.40
2023-03-16T08:04:26.718Z,197.34
2023-03-16T08:05:27.872Z,199.59
2023-03-16T08:06:26.617Z,201.72
2023-03-16T08:07:26.546Z,201.81
2023-03-16T08:08:26.465Z,202.20
2023-03-16T08:09:26.413Z,202.84
2023-03-16T08:10:26.730Z,204.32
2023-03-16T08:11:26.348Z,206.73
2023-03-16T08:12:26.249Z,209.25
2023-03-16T08:13:26.204Z,208.82
2023-03-16T08:14:26.188Z,209.61
2023-03-16T08:15:26.075Z,210.89
2023-03-16T08:16:26.084Z,212.31
2023-03-16T08:17:25.980Z,212.29
2023-03-16T08:18:25.867Z,213.48
2023-03-16T08:19:25.818Z,214.05
2023-03-16T08:20:25.782Z,216.06
2023-03-16T08:21:25.762Z,215.70
2023-03-16T08:22:25.645Z,216.57
2023-03-16T08:23:25.626Z,217.74
2023-03-16T08:24:25.540Z,218.73
2023-03-16T08:25:25.584Z,219.43
2023-03-16T08:26:25.525Z,219.81
2023-03-16T08:27:25.355Z,221.21
2023-03-16T08:28:25.286Z,222.07
2023-03-16T08:29:26.090Z,220.14
2023-03-16T08:30:25.504Z,222.46
2023-03-16T08:31:25.260Z,221.57
2023-03-16T08:32:25.141Z,224.75
2023-03-16T08:33:25.048Z,226.84
2023-03-16T08:34:24.997Z,220.51
2023-03-16T08:35:24.989Z,204.29
2023-03-16T08:36:24.870Z,209.90
2023-03-16T08:37:24.804Z,208.44
2023-03-16T08:38:24.755Z,207.23
2023-03-16T08:39:24.691Z,206.87
2023-03-16T08:40:24.625Z,208.14
2023-03-16T08:41:24.577Z,208.41
2023-03-16T08:42:24.527Z,209.89
2023-03-16T08:43:24.516Z,120.11
2023-03-16T08:44:24.519Z,167.88
2023-03-16T08:45:24.375Z,190.79
2023-03-16T08:46:24.391Z,192.48
2023-03-16T08:47:24.240Z,135.87
2023-03-16T08:48:24.198Z,89.58
2023-03-16T08:49:24.212Z,63.56
2023-03-16T08:50:24.107Z,56.30
2023-03-16T08:51:24.080Z,39.92
2023-03-16T08:52:24.145Z,36.89
2023-03-16T08:53:24.041Z,29.32
2023-03-16T08:54:23.942Z,26.96
2023-03-16T08:55:23.909Z,23.95
2023-03-16T08:56:23.895Z,23.86
2023-03-16T08:57:23.845Z,23.63
2023-03-16T08:58:23.799Z,24.26
2023-03-16T08:59:30.060Z,24.46
2023-03-16T09:00:24.892Z,24.52
2023-03-16T09:01:23.754Z,24.51
2023-03-16T09:02:23.743Z,17.24
2023-03-16T09:03:23.712Z,16.27
2023-03-16T09:04:23.774Z,12.29
2023-03-16T09:05:23.650Z,18.58
2023-03-16T09:06:23.606Z,16.80
2023-03-16T09:07:23.683Z,21.00
2023-03-16T09:08:23.515Z,24.19
2023-03-16T09:09:23.538Z,23.53
2023-03-16T09:10:23.604Z,18.87
2023-03-16T09:11:23.473Z,13.05
2023-03-16T09:12:23.429Z,2.51
2023-03-16T09:13:23.387Z,5.32
2023-03-16T09:14:23.355Z,5.97
2023-03-16T09:15:23.330Z,39.82
2023-03-16T09:16:23.364Z,55.79
2023-03-16T09:17:23.319Z,65.35
2023-03-16T09:18:23.324Z,77.60
2023-03-16T09:19:23.296Z,86.14
2023-03-16T09:20:26.792Z,87.39
2023-03-16T09:21:24.191Z,87.67
2023-03-16T09:22:23.213Z,89.69
2023-03-16T09:23:23.134Z,95.09
2023-03-16T09:24:23.107Z,104.11
2023-03-16T09:25:23.101Z,121.46
2023-03-16T09:26:23.228Z,128.97
2023-03-16T09:27:23.121Z,134.31
2023-03-16T09:28:22.970Z,138.84
2023-03-16T09:29:23.074Z,142.81
2023-03-16T09:30:22.869Z,147.67
2023-03-16T09:31:22.922Z,157.49
2023-03-16T09:32:22.796Z,163.39
2023-03-16T09:33:22.778Z,166.75
2023-03-16T09:34:22.726Z,167.78
2023-03-16T09:35:22.700Z,173.80
2023-03-16T09:36:22.628Z,177.11
2023-03-16T09:37:23.566Z,180.81
2023-03-16T09:38:22.543Z,180.90
2023-03-16T09:39:22.502Z,181.62
2023-03-16T09:40:22.669Z,183.58
2023-03-16T09:41:22.464Z,187.23
2023-03-16T09:42:22.363Z,191.98
2023-03-16T09:43:22.332Z,194.62
2023-03-16T09:44:22.638Z,195.41
2023-03-16T09:45:22.260Z,195.97
2023-03-16T09:46:22.212Z,197.90
2023-03-16T09:47:22.131Z,198.77
2023-03-16T09:48:22.102Z,199.56
2023-03-16T09:49:22.100Z,200.89
2023-03-16T09:50:22.017Z,200.54
2023-03-16T09:51:22.007Z,201.15
2023-03-16T09:52:21.896Z,201.05
2023-03-16T09:53:21.832Z,201.57
2023-03-16T09:54:21.807Z,198.05
2023-03-16T09:55:21.756Z,194.55
2023-03-16T09:56:21.728Z,187.16
2023-03-16T09:57:21.681Z,160.48
2023-03-16T11:50:16.309Z,209.78
2023-03-16T11:53:16.553Z,208.12
2023-03-16T11:54:16.112Z,209.10
2023-03-16T11:55:16.055Z,208.14
2023-03-16T11:56:15.997Z,208.59
2023-03-16T11:57:15.976Z,207.78
2023-03-16T11:58:15.902Z,207.61
2023-03-16T11:59:15.877Z,208.22
2023-03-16T12:00:15.901Z,208.02
2023-03-16T12:01:15.787Z,208.48
2023-03-16T12:02:15.719Z,207.57
2023-03-16T12:03:15.686Z,207.84
2023-03-16T12:04:15.621Z,208.44
2023-03-16T12:05:15.538Z,207.91
2023-03-16T12:06:23.013Z,208.03
2023-03-16T12:08:15.422Z,208.08
2023-03-16T12:09:15.420Z,208.25
2023-03-16T12:10:15.303Z,208.18
2023-03-16T12:11:15.249Z,207.25
2023-03-16T12:12:15.167Z,206.46
2023-03-16T12:13:15.144Z,206.84
2023-03-16T12:14:15.110Z,206.25
2023-03-16T12:15:15.026Z,206.29
2023-03-16T12:16:15.012Z,205.64
2023-03-16T12:17:14.941Z,205.31
2023-03-16T12:18:14.908Z,204.98
2023-03-16T12:19:14.857Z,205.21
2023-03-16T12:20:14.873Z,204.79
2023-03-16T12:21:14.791Z,204.73
2023-03-16T12:22:15.680Z,204.17
2023-03-16T12:23:14.646Z,203.96
2023-03-16T12:24:14.614Z,203.89
2023-03-16T12:25:14.576Z,203.97
2023-03-16T12:26:14.559Z,203.26
2023-03-16T12:27:14.477Z,202.58
2023-03-16T12:28:14.439Z,201.49
2023-03-16T12:29:14.417Z,201.01
2023-03-16T12:30:14.403Z,201.48
2023-03-16T12:31:14.328Z,200.32
2023-03-16T12:32:14.249Z,200.96
2023-03-16T12:33:14.182Z,200.80
2023-03-16T12:34:14.145Z,201.24
2023-03-16T12:35:14.082Z,201.90
2023-03-16T12:36:14.050Z,201.41
2023-03-16T12:37:13.981Z,201.60
2023-03-16T12:38:13.949Z,201.76
2023-03-16T12:39:13.885Z,203.10
2023-03-16T12:40:13.941Z,202.71
2023-03-16T12:41:15.988Z,202.91
2023-03-16T12:42:13.754Z,202.93
2023-03-16T12:43:13.695Z,203.06
2023-03-16T12:44:13.746Z,203.05
2023-03-16T12:45:13.600Z,202.79
2023-03-16T12:46:13.600Z,202.92
2023-03-16T12:47:13.514Z,202.98
2023-03-16T12:48:13.466Z,203.36
2023-03-16T12:49:13.387Z,204.27
2023-03-16T12:50:13.366Z,203.54
2023-03-16T12:51:13.283Z,203.47
2023-03-16T12:52:13.239Z,203.65
2023-03-16T12:53:13.165Z,203.42
2023-03-16T12:54:13.132Z,203.49
2023-03-16T12:55:13.071Z,203.63
2023-03-16T12:56:13.040Z,203.75
2023-03-16T12:57:12.982Z,203.98
2023-03-16T12:58:12.939Z,204.40
2023-03-16T12:59:12.867Z,204.08
2023-03-16T13:00:12.849Z,204.14
2023-03-16T13:01:12.846Z,204.29
2023-03-16T13:02:12.723Z,204.22
2023-03-16T13:03:12.662Z,204.46
2023-03-16T13:04:12.682Z,204.02
2023-03-16T13:05:12.563Z,204.25
2023-03-16T13:06:12.529Z,204.77
2023-03-16T13:07:12.446Z,204.62
2023-03-16T13:08:12.405Z,204.49
2023-03-16T13:09:12.344Z,204.60
2023-03-16T13:10:12.408Z,204.47
2023-03-16T13:11:12.247Z,204.43
2023-03-16T13:12:14.709Z,204.66
2023-03-16T13:13:12.269Z,204.57
2023-03-16T13:14:12.209Z,204.43
2023-03-16T13:15:12.147Z,204.08
2023-03-16T13:16:12.166Z,203.82
2023-03-16T13:17:12.088Z,204.48
2023-03-16T13:18:11.980Z,204.61
2023-03-16T13:19:11.937Z,205.12
2023-03-16T13:20:13.742Z,203.97
2023-03-16T13:21:12.826Z,204.02
2023-03-16T13:22:11.782Z,204.09
2023-03-16T13:23:11.715Z,204.28
2023-03-16T13:46:46.565Z,25.00
2023-03-16T13:47:46.576Z,25.00
2023-03-16T13:48:46.571Z,25.00
2023-03-16T13:49:46.571Z,25.00
2023-03-16T13:50:46.556Z,25.00
2023-03-16T13:51:46.558Z,25.37
2023-03-16T13:52:46.545Z,25.00
2023-03-16T13:53:46.564Z,25.10
2023-03-16T13:54:46.532Z,26.65
2023-03-16T13:55:46.534Z,26.87
2023-03-16T13:56:46.621Z,29.21
2023-03-16T13:57:46.573Z,26.39
2023-03-16T13:58:46.565Z,26.55
2023-03-16T13:59:46.575Z,27.93
2023-03-16T14:00:46.564Z,25.00
2023-03-16T14:01:46.570Z,25.68
2023-03-16T14:02:46.596Z,27.91
2023-03-16T14:03:46.580Z,28.66
2023-03-16T14:04:46.578Z,26.92
2023-03-16T14:05:46.581Z,27.18
2023-03-16T14:06:46.581Z,30.22
2023-03-16T14:07:46.555Z,27.89
2023-03-16T14:08:46.555Z,27.11
2023-03-16T14:09:46.560Z,28.62
2023-03-16T14:10:46.557Z,30.08
2023-03-16T14:11:46.559Z,27.02
2023-03-16T14:12:46.561Z,27.76
2023-03-16T14:13:46.563Z,27.59
2023-03-16T14:14:46.568Z,28.95
2023-03-16T14:15:46.585Z,27.88
2023-03-16T14:16:46.562Z,26.35
2023-03-16T14:17:46.565Z,28.45
2023-03-16T14:18:46.580Z,28.75
2023-03-16T14:19:46.580Z,30.29
2023-03-16T14:20:46.572Z,25.45
2023-03-16T14:21:46.578Z,28.21
2023-03-16T14:22:46.570Z,28.08
2023-03-16T14:23:46.574Z,31.08
2023-03-16T14:24:46.582Z,30.40
2023-03-16T14:25:46.572Z,25.98
2023-03-16T14:26:46.595Z,26.09
2023-03-16T14:27:46.575Z,27.97
2023-03-16T14:28:46.586Z,28.75
2023-03-16T14:29:46.592Z,28.86
2023-03-16T14:30:47.278Z,28.82
2023-03-16T14:31:46.601Z,27.73
2023-03-16T14:32:46.623Z,26.76
2023-03-16T14:33:47.248Z,27.29
2023-03-16T14:34:46.593Z,27.17
2023-03-16T14:35:46.623Z,27.79
2023-03-16T14:36:46.596Z,26.35
2023-03-16T14:37:46.597Z,27.86
2023-03-16T14:38:46.602Z,29.20
2023-03-16T14:39:46.607Z,26.63
2023-03-16T14:40:46.607Z,26.85
2023-03-16T14:41:46.606Z,25.14
2023-03-16T14:42:46.578Z,27.63
2023-03-16T14:43:46.615Z,27.87
2023-03-16T14:44:46.584Z,29.66
2023-03-16T14:45:46.685Z,31.05
2023-03-16T14:46:46.577Z,29.06
2023-03-16T14:47:46.582Z,28.82
2023-03-16T14:48:46.606Z,30.66
2023-03-16T14:49:46.618Z,29.62
2023-03-16T14:50:46.567Z,30.74
2023-03-16T14:51:46.585Z,28.99
2023-03-16T14:52:46.559Z,28.92
2023-03-16T14:53:46.565Z,30.82
2023-03-16T14:54:46.561Z,28.46
2023-03-16T14:55:46.560Z,28.68
2023-03-16T14:56:46.566Z,29.88
2023-03-16T14:57:46.561Z,25.50
2023-03-16T14:58:46.552Z,30.42
2023-03-16T14:59:46.563Z,30.72
2023-03-16T15:00:53.056Z,28.16
2023-03-16T15:01:47.581Z,28.56
2023-03-16T15:02:47.261Z,29.01
2023-03-16T15:03:46.539Z,29.01
2023-03-16T15:04:46.545Z,25.66
2023-03-16T15:05:46.545Z,30.01
2023-03-16T15:06:46.530Z,26.92
2023-03-16T15:07:46.551Z,27.39
2023-03-16T15:08:46.515Z,29.41
2023-03-16T15:09:46.520Z,26.81
2023-03-16T15:10:46.512Z,30.29
2023-03-16T15:11:46.523Z,28.05
2023-03-16T15:12:46.535Z,29.06
2023-03-16T15:13:47.147Z,28.77
2023-03-16T15:14:46.527Z,30.46
2023-03-16T15:15:46.554Z,26.33
2023-03-16T15:16:46.547Z,29.32
2023-03-16T15:17:46.539Z,31.09
2023-03-16T15:18:46.533Z,26.64
2023-03-16T15:19:46.561Z,26.26
2023-03-16T15:20:46.523Z,27.11
2023-03-16T15:21:46.528Z,28.19
2023-03-16T15:22:46.516Z,28.08
2023-03-16T15:23:46.529Z,28.56
2023-03-16T15:24:46.904Z,28.63
2023-03-16T15:25:46.539Z,25.68
2023-03-16T15:26:46.531Z,26.30
2023-03-16T15:27:46.540Z,25.00
2023-03-16T15:28:46.548Z,29.14
2023-03-16T15:29:46.541Z,26.55
2023-03-16T15:30:46.546Z,27.74
2023-03-16T15:31:46.593Z,26.49
2023-03-16T15:32:46.636Z,28.22
2023-03-16T15:33:46.549Z,27.59
2023-03-16T15:34:46.604Z,27.13
2023-03-16T15:35:46.612Z,27.27
2023-03-16T15:36:46.570Z,27.04
2023-03-16T15:37:46.559Z,27.36
2023-03-16T15:38:46.569Z,25.29
2023-03-16T15:39:46.552Z,27.02
2023-03-16T15:40:46.553Z,32.02
2023-03-16T15:41:48.061Z,27.96
2023-03-16T15:42:47.058Z,30.38
2023-03-16T15:43:46.562Z,27.27
2023-03-16T15:44:46.559Z,29.47
2023-03-16T15:57:46.542Z,28.45
2023-03-16T16:28:46.709Z,25.00
2023-03-16T16:29:46.725Z,28.31
2023-03-16T16:30:46.746Z,27.15
2023-03-16T16:31:46.797Z,30.83
2023-03-16T16:32:46.791Z,31.42
2023-03-16T16:33:46.763Z,29.62
2023-03-16T16:35:01.751Z,26.89
2023-03-16T16:35:47.830Z,27.22
2023-03-16T16:36:46.777Z,27.51
2023-03-16T16:37:46.773Z,26.19
2023-03-16T16:38:46.774Z,29.80
2023-03-16T16:39:46.797Z,29.24
2023-03-16T16:40:46.812Z,27.59
2023-03-16T16:41:46.816Z,28.02
2023-03-16T16:42:46.817Z,27.60
2023-03-16T16:43:46.819Z,28.18
2023-03-16T16:44:46.844Z,29.81
2023-03-16T16:45:46.918Z,28.88
2023-03-16T16:46:46.871Z,27.31
2023-03-16T16:47:46.858Z,29.97
2023-03-16T16:48:46.868Z,30.28
2023-03-16T16:49:46.872Z,28.30
2023-03-16T16:50:46.879Z,29.20
2023-03-16T16:51:46.882Z,32.97
2023-03-16T16:52:46.870Z,29.30
2023-03-16T16:53:46.868Z,27.48
2023-03-16T16:54:46.874Z,29.09
2023-03-16T16:55:46.897Z,28.08
2023-03-16T16:56:46.884Z,26.61
2023-03-16T16:57:46.895Z,31.70
2023-03-16T16:58:46.912Z,31.08
2023-03-16T16:59:46.908Z,27.22
2023-03-16T17:00:46.906Z,26.22
2023-03-16T17:01:46.915Z,31.36
2023-03-16T17:02:46.890Z,30.25
2023-03-16T17:03:46.912Z,30.74
2023-03-16T17:04:46.966Z,28.53
2023-03-16T17:05:46.902Z,31.54
2023-03-16T17:06:46.919Z,27.77
2023-03-16T17:07:46.933Z,29.16
2023-03-16T17:08:46.936Z,25.25
2023-03-16T17:09:46.943Z,27.77
2023-03-16T17:10:46.941Z,28.87
2023-03-16T17:11:46.964Z,25.16
2023-03-16T17:12:46.962Z,29.12
2023-03-16T17:13:46.980Z,26.13
2023-03-16T17:14:46.975Z,27.10
2023-03-16T17:15:47.029Z,26.91
2023-03-16T17:16:47.124Z,28.04
2023-03-16T17:17:47.014Z,29.24
2023-03-16T17:18:47.012Z,26.30
2023-03-16T17:19:47.069Z,30.07
2023-03-16T17:20:47.028Z,27.46
2023-03-16T17:21:47.050Z,32.01
2023-03-16T17:22:47.049Z,27.81
2023-03-16T17:23:47.045Z,30.05
2023-03-16T17:24:47.060Z,29.98
2023-03-16T17:25:47.075Z,27.72
2023-03-16T17:26:47.084Z,26.68
2023-03-16T17:27:47.060Z,26.46
2023-03-16T17:28:47.067Z,28.54
2023-03-16T17:29:47.073Z,30.55
2023-03-16T17:30:47.093Z,27.09
2023-03-16T17:31:47.083Z,26.79
2023-03-16T17:32:47.094Z,31.79
2023-03-16T17:33:47.085Z,31.45
2023-03-16T17:34:47.081Z,28.51
2023-03-16T17:35:47.109Z,26.61
2023-03-16T17:36:47.102Z,29.59
2023-03-16T17:37:47.118Z,27.50
2023-03-16T17:38:47.157Z,28.65
2023-03-16T17:39:47.138Z,33.74
2023-03-16T17:40:47.130Z,31.98
2023-03-16T17:41:47.140Z,29.84
2023-03-16T17:42:47.142Z,27.36
2023-03-16T17:43:47.162Z,26.99
2023-03-16T17:44:47.157Z,31.79
2023-03-16T17:45:47.178Z,35.11
2023-03-16T17:46:47.174Z,32.10
2023-03-16T17:47:47.173Z,26.31
2023-03-16T17:48:47.181Z,26.43
2023-03-16T17:49:47.179Z,27.74
2023-03-16T17:50:47.222Z,26.53
2023-03-16T17:51:47.280Z,26.59
2023-03-16T17:52:47.216Z,27.71
2023-03-16T17:53:47.246Z,26.36
2023-03-16T17:54:47.242Z,34.05
2023-03-16T17:55:47.231Z,33.77
2023-03-16T17:56:47.284Z,31.07
2023-03-16T17:57:47.250Z,31.76
2023-03-16T17:58:47.282Z,33.78
2023-03-16T17:59:47.275Z,26.46
2023-03-16T18:00:47.276Z,30.94
2023-03-16T18:01:47.391Z,27.50